Time;durP1;ratioP1;P1;durP2;ratioP2;P2;SDS_P1;SDS_P2;PMS_P1;PMS_P2;Temp;Humidity;BMP_temperature;BMP_pressure;BME280_temperature;BME280_humidity;BME280_pressure;Samples;Min_cycle;Max_cycle;Signal;HPM_P1;HPM_P2
2023/05/12 00:01:32;;;;;;;5.80;3.20;;;;;;;4.32;100.00;100872.81;104471;1264;69575;-57
2023/05/12 00:03:59;;;;;;;6.10;3.60;;;;;;;4.24;100.00;100873.64;105097;1262;74304;-58
2023/05/12 00:06:26;;;;;;;7.10;3.30;;;;;;;4.18;100.00;100876.61;104543;1262;62349;-56
2023/05/12 00:08:53;;;;;;;7.20;4.10;;;;;;;4.12;100.00;100877.39;104846;1264;61646;-55
2023/05/12 00:11:20;;;;;;;6.90;3.60;;;;;;;4.07;100.00;100876.79;104822;1267;75273;-59
2023/05/12 00:13:48;;;;;;;8.90;3.40;;;;;;;4.05;100.00;100880.37;104440;1267;68349;-55
2023/05/12 00:16:17;;;;;;;5.60;3.30;;;;;;;4.02;100.00;100882.52;104654;1263;75460;-55
2023/05/12 00:18:44;;;;;;;9.60;3.50;;;;;;;3.99;100.00;100883.27;104806;1262;63470;-57
2023/05/12 00:21:12;;;;;;;6.00;3.30;;;;;;;3.94;100.00;100881.45;104769;1263;61540;-55
2023/05/12 00:23:39;;;;;;;7.90;3.50;;;;;;;3.87;100.00;100883.89;104390;1263;75958;-58
2023/05/12 00:26:06;;;;;;;7.50;3.00;;;;;;;3.82;100.00;100883.48;104466;1262;69298;-56
2023/05/12 00:28:34;;;;;;;7.10;3.40;;;;;;;3.75;100.00;100885.40;104432;1263;74963;-54
2023/05/12 00:31:05;;;;;;;9.50;3.30;;;;;;;3.70;100.00;100888.27;104799;1264;62022;-55
2023/05/12 00:33:32;;;;;;;6.10;3.60;;;;;;;3.65;100.00;100889.95;104754;1267;61385;-55
2023/05/12 00:36:00;;;;;;;6.80;3.30;;;;;;;3.62;100.00;100893.81;104690;1263;74103;-55
2023/05/12 00:38:27;;;;;;;8.40;3.80;;;;;;;3.60;100.00;100893.80;104669;1270;69542;-55
2023/05/12 00:40:54;;;;;;;7.80;3.60;;;;;;;3.59;100.00;100894.92;104499;1269;74943;-55
2023/05/12 00:43:21;;;;;;;10.80;3.90;;;;;;;3.59;100.00;100893.37;104621;1264;60853;-55
2023/05/12 00:45:48;;;;;;;6.40;3.50;;;;;;;3.58;100.00;100898.74;104684;1262;62743;-60
2023/05/12 00:48:15;;;;;;;5.00;2.30;;;;;;;3.57;100.00;100901.07;104626;1262;75290;-55
2023/05/12 00:50:43;;;;;;;6.00;2.70;;;;;;;3.56;100.00;100902.02;104400;1262;69461;-56
2023/05/12 00:53:11;;;;;;;4.80;2.90;;;;;;;3.57;100.00;100901.64;104754;1268;74954;-60
2023/05/12 00:55:38;;;;;;;6.10;3.00;;;;;;;3.55;100.00;100903.00;104670;1263;61877;-55
2023/05/12 00:58:05;;;;;;;4.70;2.80;;;;;;;3.52;100.00;100906.14;104518;1262;63080;-56
2023/05/12 01:00:33;;;;;;;5.50;2.60;;;;;;;3.50;100.00;100902.73;104550;1262;74891;-55
2023/05/12 01:03:00;;;;;;;6.90;2.50;;;;;;;3.47;100.00;100905.98;104572;1263;68623;-56
2023/05/12 01:05:35;;;;;;;6.30;3.00;;;;;;;3.44;100.00;100905.38;104699;1264;75511;-56
2023/05/12 01:08:02;;;;;;;5.70;2.90;;;;;;;3.41;100.00;100906.11;104444;1270;61882;-55
2023/05/12 01:10:29;;;;;;;5.00;3.00;;;;;;;3.39;100.00;100905.61;104619;1263;62359;-54
2023/05/12 01:12:56;;;;;;;5.50;2.50;;;;;;;3.38;100.00;100906.23;104685;1264;76248;-54
2023/05/12 01:15:24;;;;;;;6.20;2.80;;;;;;;3.37;100.00;100904.41;104357;1268;69715;-53
2023/05/12 01:17:53;;;;;;;5.80;2.90;;;;;;;3.34;100.00;100903.77;104744;1265;74998;-56
2023/05/12 01:20:21;;;;;;;6.30;3.10;;;;;;;3.33;100.00;100904.39;104443;1270;60794;-53
2023/05/12 01:22:49;;;;;;;4.90;2.40;;;;;;;3.31;100.00;100908.81;104515;1265;63150;-54
2023/05/12 01:25:16;;;;;;;8.00;3.30;;;;;;;3.29;100.00;100908.81;104613;1270;75154;-53
2023/05/12 01:27:43;;;;;;;6.50;3.10;;;;;;;3.26;100.00;100909.89;104686;1264;69904;-54
2023/05/12 01:30:14;;;;;;;4.40;2.50;;;;;;;3.22;100.00;100911.64;104680;1268;75231;-53
2023/05/12 01:32:41;;;;;;;4.60;2.90;;;;;;;3.19;100.00;100913.02;104562;1270;60836;-59
2023/05/12 01:35:09;;;;;;;5.00;2.90;;;;;;;3.15;100.00;100919.49;104672;1267;61493;-53
2023/05/12 01:37:39;;;;;;;6.00;2.90;;;;;;;3.11;100.00;100925.30;104789;1262;74851;-58
2023/05/12 01:40:07;;;;;;;5.20;2.60;;;;;;;3.05;100.00;100922.66;104705;1265;69648;-53
2023/05/12 01:42:34;;;;;;;6.10;2.80;;;;;;;2.97;100.00;100921.40;104865;1262;75216;-56
2023/05/12 01:45:01;;;;;;;6.10;3.30;;;;;;;2.92;100.00;100926.40;104327;1262;63681;-54
2023/05/12 01:47:30;;;;;;;5.70;2.90;;;;;;;2.87;100.00;100926.83;104645;1270;61534;-55
2023/05/12 01:50:04;;;;;;;6.10;2.80;;;;;;;2.84;100.00;100927.37;104622;1262;75225;-55
2023/05/12 01:52:31;;;;;;;5.30;3.10;;;;;;;2.82;100.00;100923.95;104699;1268;67683;-58
2023/05/12 01:54:58;;;;;;;5.20;2.60;;;;;;;2.79;100.00;100923.61;104684;1264;75554;-56
2023/05/12 01:57:29;;;;;;;5.80;2.60;;;;;;;2.74;100.00;100924.20;104572;1263;61908;-57
2023/05/12 01:59:59;;;;;;;5.00;2.50;;;;;;;2.72;100.00;100922.80;104650;1267;63246;-52
2023/05/12 02:02:29;;;;;;;5.20;2.50;;;;;;;2.73;100.00;100922.71;104875;1265;76245;-53
2023/05/12 02:04:56;;;;;;;6.90;2.90;;;;;;;2.72;100.00;100922.79;108483;1261;68205;-53
2023/05/12 02:07:23;;;;;;;8.00;3.30;;;;;;;2.75;100.00;100926.20;108499;1262;74739;-53
2023/05/12 02:09:50;;;;;;;4.90;2.60;;;;;;;2.79;100.00;100920.72;108414;1263;61796;-58
2023/05/12 02:12:18;;;;;;;4.70;2.80;;;;;;;2.88;100.00;100917.98;108435;1262;62022;-55
2023/05/12 02:14:45;;;;;;;5.70;3.10;;;;;;;2.95;100.00;100922.43;108490;1264;74399;-53
2023/05/12 02:17:12;;;;;;;6.90;3.40;;;;;;;3.00;100.00;100923.94;108450;1262;69148;-54
2023/05/12 02:19:40;;;;;;;5.60;2.90;;;;;;;3.03;100.00;100924.38;108444;1262;72682;-57
2023/05/12 02:22:08;;;;;;;8.20;3.10;;;;;;;3.07;100.00;100926.96;108423;1262;62156;-54
2023/05/12 02:24:35;;;;;;;5.00;2.70;;;;;;;3.13;100.00;100933.73;108407;1261;62936;-53
2023/05/12 02:27:02;;;;;;;6.90;3.10;;;;;;;3.20;100.00;100929.25;108490;1262;75236;-54
2023/05/12 02:29:30;;;;;;;4.90;2.80;;;;;;;3.29;100.00;100923.55;108456;1262;69215;-53
2023/05/12 02:31:58;;;;;;;5.70;2.80;;;;;;;3.40;100.00;100924.94;108412;1264;74861;-56
2023/05/12 02:34:25;;;;;;;7.90;3.10;;;;;;;3.54;100.00;100927.46;108450;1264;60672;-58
2023/05/12 02:36:54;;;;;;;5.70;2.80;;;;;;;3.67;100.00;100928.98;108450;1265;62443;-55
2023/05/12 02:39:21;;;;;;;5.20;2.30;;;;;;;3.78;100.00;100928.96;108459;1262;76094;-54
2023/05/12 02:41:48;;;;;;;5.40;2.60;;;;;;;3.96;100.00;100930.81;108354;1264;68664;-57
2023/05/12 02:44:16;;;;;;;8.80;3.50;;;;;;;4.15;100.00;100927.68;108497;1262;75137;-53
2023/05/12 02:46:43;;;;;;;8.70;3.30;;;;;;;4.33;100.00;100930.72;108517;1262;63928;-55
2023/05/12 02:49:11;;;;;;;5.80;3.10;;;;;;;4.49;100.00;100928.88;108480;1262;61187;-54
2023/05/12 02:51:38;;;;;;;5.80;2.70;;;;;;;4.71;100.00;100936.16;108457;1264;74703;-53
2023/05/12 02:54:05;;;;;;;4.50;2.20;;;;;;;5.03;100.00;100935.69;108517;1266;69388;-53
2023/05/12 02:56:32;;;;;;;7.70;3.80;;;;;;;5.45;100.00;100933.15;108440;1264;74834;-58
2023/05/12 02:59:00;;;;;;;5.10;3.00;;;;;;;5.93;100.00;100936.23;108415;1263;61948;-54
2023/05/12 03:01:27;;;;;;;4.50;2.80;;;;;;;6.45;100.00;100932.42;108495;1264;62713;-53
2023/05/12 03:03:54;;;;;;;5.60;2.30;;;;;;;7.21;100.00;100925.55;108464;1264;76070;-58
2023/05/12 03:06:21;;;;;;;5.70;2.90;;;;;;;8.13;100.00;100923.29;108403;1267;67793;-53
2023/05/12 03:08:48;;;;;;;5.70;2.90;;;;;;;9.21;100.00;100915.88;108368;1264;75563;-53
2023/05/12 03:11:15;;;;;;;6.80;2.90;;;;;;;10.31;100.00;100909.48;108466;1264;61804;-53
2023/05/12 03:13:42;;;;;;;6.30;3.10;;;;;;;11.25;100.00;100901.09;108373;1263;62155;-55
2023/05/12 03:16:09;;;;;;;5.60;2.90;;;;;;;12.08;100.00;100894.84;108421;1263;76329;-54
2023/05/12 03:18:36;;;;;;;5.90;3.10;;;;;;;12.94;100.00;100893.71;108325;1264;68195;-59
2023/05/12 03:21:04;;;;;;;5.40;3.00;;;;;;;13.74;100.00;100893.23;108443;1263;74608;-54
2023/05/12 03:23:31;;;;;;;4.90;3.00;;;;;;;14.48;100.00;100886.40;108409;1263;62246;-54
2023/05/12 03:25:59;;;;;;;5.30;3.10;;;;;;;15.21;100.00;100887.39;108450;1263;61691;-60
2023/05/12 03:28:26;;;;;;;6.30;2.80;;;;;;;15.87;100.00;100887.67;108401;1264;75890;-54
2023/05/12 03:30:53;;;;;;;4.90;2.30;;;;;;;16.52;100.00;100891.03;108396;1263;67532;-54
2023/05/12 03:33:20;;;;;;;5.10;2.60;;;;;;;17.22;100.00;100895.73;108439;1267;75081;-54
2023/05/12 03:35:47;;;;;;;3.80;2.00;;;;;;;17.90;92.75;100892.30;108458;1263;62503;-55
2023/05/12 03:38:16;;;;;;;4.20;2.20;;;;;;;18.48;78.47;100886.31;108316;1263;61754;-57
2023/05/12 03:40:43;;;;;;;4.30;2.50;;;;;;;19.01;68.18;100887.09;108389;1262;75165;-59
2023/05/12 03:43:11;;;;;;;3.90;2.10;;;;;;;19.69;59.36;100886.30;108472;1262;69453;-54
2023/05/12 03:45:38;;;;;;;4.40;2.40;;;;;;;20.37;52.64;100882.05;108476;1261;74762;-56
2023/05/12 03:48:05;;;;;;;3.70;2.10;;;;;;;21.14;48.55;100879.55;108532;1262;62418;-56
2023/05/12 03:50:33;;;;;;;5.60;2.30;;;;;;;21.84;43.26;100885.58;108483;1262;61161;-54
2023/05/12 03:53:00;;;;;;;3.70;2.10;;;;;;;22.37;40.35;100885.41;108406;1262;74319;-55
2023/05/12 03:55:27;;;;;;;4.20;2.00;;;;;;;22.86;38.57;100881.86;108505;1262;69637;-54
2023/05/12 03:57:54;;;;;;;3.30;1.90;;;;;;;23.28;36.78;100880.45;108496;1262;74780;-56
2023/05/12 04:00:21;;;;;;;3.90;2.20;;;;;;;23.55;35.56;100878.48;108389;1262;62227;-59
2023/05/12 04:02:49;;;;;;;4.70;3.40;;;;;;;23.79;34.63;100879.13;108430;1262;61370;-58
2023/05/12 04:05:17;;;;;;;3.40;2.10;;;;;;;24.10;34.02;100881.23;108507;1262;74724;-54
2023/05/12 04:07:44;;;;;;;4.00;2.30;;;;;;;24.52;33.39;100883.55;108503;1263;68342;-54
2023/05/12 04:10:11;;;;;;;3.60;2.20;;;;;;;25.01;32.48;100882.27;108469;1262;75053;-59
2023/05/12 04:12:38;;;;;;;3.70;2.60;;;;;;;25.44;31.81;100885.60;108523;1261;61252;-55
2023/05/12 04:15:06;;;;;;;3.60;2.20;;;;;;;25.86;30.63;100884.73;108442;1262;62654;-54
2023/05/12 04:17:34;;;;;;;3.80;2.30;;;;;;;26.18;29.51;100884.30;108508;1262;74856;-54
2023/05/12 04:20:01;;;;;;;3.60;2.50;;;;;;;26.31;28.73;100879.66;108514;1262;69172;-54
2023/05/12 04:22:29;;;;;;;3.10;2.30;;;;;;;26.29;28.52;100880.52;108506;1262;75001;-55
2023/05/12 04:24:56;;;;;;;3.20;2.00;;;;;;;26.28;28.13;100885.29;108409;1262;62675;-59
2023/05/12 04:27:23;;;;;;;3.60;1.90;;;;;;;26.38;28.36;100881.25;108466;1262;62912;-54
2023/05/12 04:29:50;;;;;;;3.10;1.80;;;;;;;26.62;28.05;100884.37;108455;1262;75854;-54
2023/05/12 04:32:17;;;;;;;4.90;1.80;;;;;;;26.76;27.61;100878.65;108543;1263;69181;-59
2023/05/12 04:34:44;;;;;;;4.70;1.80;;;;;;;26.80;27.42;100883.05;108364;1262;73862;-54
2023/05/12 04:37:11;;;;;;;4.00;2.00;;;;;;;26.91;27.53;100881.65;108394;1262;62705;-59
2023/05/12 04:39:38;;;;;;;3.50;1.80;;;;;;;27.04;27.25;100881.41;108447;1262;60961;-55
2023/05/12 04:42:06;;;;;;;4.70;2.30;;;;;;;27.05;27.25;100881.30;108436;1262;75633;-54
2023/05/12 04:44:33;;;;;;;4.40;1.60;;;;;;;27.21;27.14;100878.65;108461;1262;69075;-55
2023/05/12 04:47:00;;;;;;;3.30;2.00;;;;;;;27.53;26.95;100874.86;108474;1263;73787;-59
2023/05/12 04:49:29;;;;;;;5.20;1.70;;;;;;;27.82;26.51;100874.92;108401;1264;62459;-55
2023/05/12 04:51:56;;;;;;;3.60;1.90;;;;;;;28.00;26.44;100877.92;108440;1262;61386;-54
2023/05/12 04:54:23;;;;;;;4.80;1.80;;;;;;;28.18;26.31;100879.88;108428;1262;76120;-59
2023/05/12 04:56:51;;;;;;;3.60;1.90;;;;;;;28.55;25.88;100872.85;108379;1263;68063;-55
2023/05/12 04:59:18;;;;;;;3.60;2.00;;;;;;;29.03;25.72;100874.07;108417;1265;73404;-55
2023/05/12 05:01:46;;;;;;;3.90;1.80;;;;;;;29.57;24.87;100872.58;108431;1265;62588;-55
2023/05/12 05:04:14;;;;;;;2.80;1.60;;;;;;;29.89;24.51;100873.41;108475;1262;61128;-55
2023/05/12 05:06:41;;;;;;;3.50;1.80;;;;;;;30.29;24.48;100874.70;108442;1264;74877;-62
2023/05/12 05:09:08;;;;;;;3.20;1.70;;;;;;;30.88;24.00;100875.43;108542;1263;69565;-58
2023/05/12 05:11:35;;;;;;;3.60;1.60;;;;;;;31.42;22.82;100870.77;108385;1265;75617;-56
2023/05/12 05:14:02;;;;;;;2.50;1.20;;;;;;;31.68;22.40;100871.52;108467;1264;62474;-54
2023/05/12 05:16:30;;;;;;;3.40;1.70;;;;;;;31.97;21.87;100869.80;108435;1263;61161;-55
2023/05/12 05:18:57;;;;;;;2.90;1.70;;;;;;;32.12;21.39;100873.96;108453;1264;76176;-55
2023/05/12 05:21:25;;;;;;;3.90;1.60;;;;;;;32.16;21.11;100873.57;108406;1263;59274;-55
2023/05/12 05:23:52;;;;;;;2.60;1.40;;;;;;;32.20;20.98;100876.75;108493;1263;74810;-56
2023/05/12 05:26:21;;;;;;;4.30;1.60;;;;;;;32.32;20.71;100873.44;108430;1265;58367;-56
2023/05/12 05:28:49;;;;;;;2.80;1.60;;;;;;;32.34;20.65;100875.77;108339;1262;62739;-60
2023/05/12 05:31:16;;;;;;;2.40;1.40;;;;;;;32.43;20.46;100874.05;108351;1262;67253;-59
2023/05/12 05:33:44;;;;;;;4.20;1.80;;;;;;;32.44;20.54;100872.33;108412;1264;68983;-56
2023/05/12 05:36:11;;;;;;;2.30;1.40;;;;;;;32.53;20.30;100871.73;108404;1265;75008;-57
2023/05/12 05:38:38;;;;;;;2.80;1.50;;;;;;;32.70;20.08;100866.95;108394;1266;58200;-59
2023/05/12 05:41:05;;;;;;;3.10;1.70;;;;;;;32.95;19.86;100863.46;108424;1262;58328;-60
2023/05/12 05:43:33;;;;;;;2.20;1.40;;;;;;;33.26;19.84;100867.80;108442;1263;76035;-56
2023/05/12 05:46:00;;;;;;;5.80;1.70;;;;;;;33.45;19.52;100865.23;108449;1262;60595;-55
2023/05/12 05:48:28;;;;;;;2.40;1.50;;;;;;;33.48;19.26;100864.20;108389;1262;65140;-59
2023/05/12 05:50:55;;;;;;;2.80;1.70;;;;;;;33.42;19.28;100865.30;108279;1262;58716;-57
2023/05/12 05:53:23;;;;;;;2.40;1.40;;;;;;;33.43;19.06;100864.23;108458;1264;60942;-56
2023/05/12 05:55:51;;;;;;;2.70;1.40;;;;;;;33.50;18.84;100859.59;108420;1262;66296;-56
2023/05/12 05:58:18;;;;;;;3.50;1.90;;;;;;;33.44;18.66;100858.85;108532;1262;68098;-56
2023/05/12 06:00:46;;;;;;;3.30;1.50;;;;;;;33.29;18.72;100858.82;108430;1262;65214;-61
2023/05/12 06:03:13;;;;;;;2.40;1.50;;;;;;;33.14;18.69;100859.90;108375;1262;62697;-56
2023/05/12 06:05:41;;;;;;;3.30;1.30;;;;;;;32.99;18.55;100857.69;108413;1262;58758;-56
2023/05/12 06:08:12;;;;;;;3.70;1.60;;;;;;;32.80;18.57;100856.74;108242;1265;66951;-56
2023/05/12 06:10:39;;;;;;;3.00;1.40;;;;;;;32.49;18.80;100858.57;108407;1264;59690;-57
2023/05/12 06:13:07;;;;;;;6.90;1.90;;;;;;;32.17;19.04;100855.48;108296;1261;74853;-56
2023/05/12 06:15:34;;;;;;;2.20;1.50;;;;;;;32.07;18.95;100854.92;108414;1262;58610;-53
2023/05/12 06:18:01;;;;;;;3.00;1.60;;;;;;;31.97;18.78;100852.64;108557;1262;62169;-55
2023/05/12 06:20:29;;;;;;;2.60;1.20;;;;;;;31.91;18.65;100849.55;108498;1261;67373;-55
2023/05/12 06:22:56;;;;;;;2.70;1.40;;;;;;;31.81;18.87;100849.73;108406;1264;60643;-61
2023/05/12 06:25:23;;;;;;;2.40;1.20;;;;;;;31.67;18.85;100847.19;108376;1265;74845;-56
2023/05/12 06:27:51;;;;;;;3.20;1.70;;;;;;;31.55;19.01;100844.64;108488;1264;61338;-55
2023/05/12 06:30:19;;;;;;;3.80;1.70;;;;;;;31.43;19.52;100850.02;108478;1262;61056;-57
2023/05/12 06:32:46;;;;;;;2.80;1.60;;;;;;;31.49;18.77;100845.88;108490;1262;76152;-56
2023/05/12 06:35:13;;;;;;;4.50;2.20;;;;;;;31.49;18.38;100845.81;108392;1262;68781;-59
2023/05/12 06:37:43;;;;;;;2.90;1.50;;;;;;;31.42;18.54;100844.89;108547;1262;73457;-55
2023/05/12 06:40:12;;;;;;;3.90;1.50;;;;;;;31.42;18.22;100845.67;108468;1264;59296;-56
2023/05/12 06:42:39;;;;;;;3.30;1.60;;;;;;;31.32;18.37;100844.09;108577;1262;62342;-56
2023/05/12 06:45:09;;;;;;;1.80;1.10;;;;;;;31.28;18.52;100845.33;108451;1262;76209;-60
2023/05/12 06:47:37;;;;;;;6.80;1.60;;;;;;;31.13;18.61;100851.75;108403;1262;67878;-56
2023/05/12 06:50:06;;;;;;;2.50;1.60;;;;;;;31.13;18.81;100850.31;108420;1264;74752;-56
2023/05/12 06:52:34;;;;;;;2.70;1.40;;;;;;;31.20;18.81;100849.38;108292;1264;58647;-56
2023/05/12 06:55:01;;;;;;;3.80;1.30;;;;;;;31.17;18.70;100851.93;108471;1262;61020;-57
2023/05/12 06:57:29;;;;;;;4.20;1.30;;;;;;;31.22;19.00;100852.44;108351;1262;76714;-57
2023/05/12 06:59:56;;;;;;;2.40;1.30;;;;;;;31.37;18.74;100851.41;108485;1261;68213;-56
2023/05/12 07:02:23;;;;;;;2.50;1.30;;;;;;;31.62;18.43;100854.81;108572;1262;74752;-55
2023/05/12 07:04:50;;;;;;;2.30;1.10;;;;;;;31.83;18.24;100856.21;108553;1262;62230;-56
2023/05/12 07:07:17;;;;;;;3.60;1.60;;;;;;;31.86;18.16;100852.30;108498;1262;62166;-57
2023/05/12 07:09:44;;;;;;;6.50;2.20;;;;;;;31.70;18.37;100853.55;108484;1263;75993;-57
2023/05/12 07:12:11;;;;;;;3.70;1.90;;;;;;;31.73;18.00;100850.42;108584;1262;69001;-58
2023/05/12 07:14:39;;;;;;;2.30;1.20;;;;;;;31.66;17.80;100845.33;108530;1262;74749;-56
2023/05/12 07:17:06;;;;;;;2.60;1.40;;;;;;;31.47;17.74;100845.70;108565;1262;60920;-61
2023/05/12 07:19:34;;;;;;;5.20;1.20;;;;;;;31.23;17.55;100850.39;108528;1262;61674;-60
2023/05/12 07:22:01;;;;;;;2.80;1.60;;;;;;;31.00;17.65;100853.49;108588;1262;75815;-56
2023/05/12 07:24:28;;;;;;;2.50;1.50;;;;;;;30.86;17.80;100856.30;108601;1262;69120;-57
2023/05/12 07:26:55;;;;;;;2.80;1.60;;;;;;;30.81;18.17;100854.58;108578;1263;75068;-56
2023/05/12 07:29:22;;;;;;;3.90;1.80;;;;;;;30.99;18.23;100859.80;108506;1263;62763;-57
2023/05/12 07:31:49;;;;;;;3.30;1.60;;;;;;;31.28;18.20;100859.72;108470;1263;58588;-57
2023/05/12 07:34:17;;;;;;;2.70;1.50;;;;;;;31.32;17.91;100860.16;108582;1262;67128;-56
2023/05/12 07:36:44;;;;;;;2.50;1.40;;;;;;;31.21;17.93;100863.45;108586;1262;69189;-56
2023/05/12 07:39:13;;;;;;;2.30;1.50;;;;;;;31.23;16.81;100860.08;108529;1262;74766;-58
2023/05/12 07:41:40;;;;;;;1.90;1.40;;;;;;;31.40;17.20;100852.69;108429;1263;61158;-57
2023/05/12 07:44:08;;;;;;;3.00;2.00;;;;;;;31.69;17.71;100849.10;108498;1262;62210;-58
2023/05/12 07:46:35;;;;;;;2.50;1.60;;;;;;;31.83;17.49;100849.45;108456;1263;74071;-57
2023/05/12 07:49:02;;;;;;;5.10;1.80;;;;;;;31.91;16.35;100848.84;108438;1262;69157;-57
2023/05/12 07:51:29;;;;;;;4.70;1.70;;;;;;;31.57;16.61;100851.77;108421;1264;75179;-59
2023/05/12 07:53:56;;;;;;;2.90;1.60;;;;;;;31.05;16.42;100854.15;108513;1264;62546;-57
2023/05/12 07:56:24;;;;;;;2.10;1.50;;;;;;;30.48;16.94;100855.96;108479;1262;58175;-56
2023/05/12 07:58:51;;;;;;;3.30;1.80;;;;;;;29.97;17.16;100861.50;108533;1262;75822;-56
2023/05/12 08:01:18;;;;;;;3.80;1.70;;;;;;;29.38;16.77;100861.27;108440;1262;68949;-60
2023/05/12 08:03:45;;;;;;;3.60;1.70;;;;;;;28.68;17.28;100860.96;108431;1262;74865;-56
2023/05/12 08:06:12;;;;;;;2.50;1.40;;;;;;;28.33;17.37;100863.29;108446;1267;60542;-56
2023/05/12 08:08:39;;;;;;;2.90;2.00;;;;;;;28.38;17.91;100852.07;108495;1262;61164;-56
2023/05/12 08:11:06;;;;;;;2.40;1.50;;;;;;;28.68;17.47;100854.87;108455;1263;76278;-57
2023/05/12 08:13:35;;;;;;;3.30;1.90;;;;;;;28.90;18.05;100855.78;108528;1267;68597;-56
2023/05/12 08:16:02;;;;;;;6.00;1.80;;;;;;;29.27;18.51;100847.72;108432;1267;75021;-57
2023/05/12 08:18:30;;;;;;;2.50;1.70;;;;;;;29.76;18.20;100849.56;108577;1264;61214;-57
2023/05/12 08:20:57;;;;;;;2.60;1.50;;;;;;;30.13;18.15;100853.44;108526;1262;62147;-55
2023/05/12 08:23:24;;;;;;;3.60;1.70;;;;;;;30.42;17.16;100852.48;108507;1262;74788;-56
2023/05/12 08:25:51;;;;;;;4.60;1.70;;;;;;;30.30;16.76;100849.62;108448;1262;67961;-60
2023/05/12 08:28:18;;;;;;;2.30;1.60;;;;;;;29.90;17.40;100850.38;108488;1262;73826;-55
2023/05/12 08:30:45;;;;;;;2.90;1.50;;;;;;;29.63;17.88;100848.85;108530;1262;61600;-58
2023/05/12 08:33:13;;;;;;;4.60;1.80;;;;;;;29.77;18.31;100849.77;108551;1262;61284;-56
2023/05/12 08:35:40;;;;;;;3.40;1.80;;;;;;;30.16;18.54;100848.88;108525;1262;75876;-57
2023/05/12 08:38:07;;;;;;;4.10;1.90;;;;;;;30.60;18.47;100850.95;108597;1263;69698;-60
2023/05/12 08:40:39;;;;;;;3.50;1.80;;;;;;;30.88;17.87;100849.95;108529;1263;73609;-55
2023/05/12 08:43:17;;;;;;;4.50;1.60;;;;;;;30.60;17.69;100859.91;108571;1262;62533;-56
2023/05/12 08:45:44;;;;;;;3.70;2.10;;;;;;;29.99;18.03;100853.88;108536;1262;62608;-57
2023/05/12 08:48:12;;;;;;;1.90;1.30;;;;;;;29.59;18.20;100855.30;108263;1263;366052;-56
2023/05/12 08:50:39;;;;;;;3.50;1.80;;;;;;;29.46;18.08;100852.88;108574;1262;68265;-56
2023/05/12 08:53:10;;;;;;;4.10;2.10;;;;;;;29.21;18.42;100848.08;108567;1264;73579;-57
2023/05/12 08:55:38;;;;;;;2.10;1.60;;;;;;;28.90;18.97;100853.42;108458;1262;63171;-61
2023/05/12 08:58:05;;;;;;;2.60;1.40;;;;;;;28.57;19.24;100854.42;108545;1264;61814;-56
2023/05/12 09:00:35;;;;;;;3.30;1.70;;;;;;;28.26;19.08;100848.50;108449;1261;76168;-56
2023/05/12 09:03:03;;;;;;;6.10;2.30;;;;;;;27.85;19.30;100854.63;108561;1263;68724;-56
2023/05/12 09:05:31;;;;;;;3.30;1.50;;;;;;;27.34;19.62;100860.45;108437;1268;75391;-56
2023/05/12 09:07:58;;;;;;;2.80;1.30;;;;;;;26.88;20.50;100860.16;108540;1265;63004;-57
2023/05/12 09:10:26;;;;;;;3.80;1.50;;;;;;;26.74;20.65;100863.14;108494;1262;61140;-55
2023/05/12 09:13:03;;;;;;;2.40;1.30;;;;;;;26.92;20.81;100853.61;108458;1262;75995;-56
2023/05/12 09:15:34;;;;;;;2.80;1.40;;;;;;;26.98;20.72;100853.73;108487;1264;68788;-59
2023/05/12 09:18:01;;;;;;;2.90;1.40;;;;;;;27.28;20.35;100856.52;108566;1264;74540;-55
2023/05/12 09:20:29;;;;;;;2.10;1.30;;;;;;;27.39;19.86;100847.23;108483;1265;62336;-56
2023/05/12 09:22:58;;;;;;;2.40;1.10;;;;;;;27.31;19.94;100853.04;108575;1262;62804;-56
2023/05/12 09:25:26;;;;;;;4.50;1.60;;;;;;;26.81;19.98;100855.23;108512;1267;74881;-59
2023/05/12 09:27:55;;;;;;;6.20;1.10;;;;;;;26.24;20.40;100859.36;108509;1263;68556;-56
2023/05/12 09:30:30;;;;;;;3.90;1.30;;;;;;;25.81;21.00;100857.59;108458;1264;74404;-55
2023/05/12 09:33:10;;;;;;;2.60;1.20;;;;;;;25.54;21.54;100858.58;108362;1264;61282;-55
2023/05/12 09:35:41;;;;;;;2.80;1.10;;;;;;;25.71;22.42;100851.69;108356;1268;63288;-55
2023/05/12 09:38:10;;;;;;;4.40;1.40;;;;;;;26.40;21.72;100845.03;108491;1262;75817;-56
2023/05/12 09:40:37;;;;;;;2.90;1.20;;;;;;;27.22;20.97;100838.20;108501;1263;67942;-55
2023/05/12 09:43:04;;;;;;;3.10;1.60;;;;;;;27.91;20.34;100836.70;108537;1263;74663;-60
2023/05/12 09:45:35;;;;;;;2.80;1.40;;;;;;;28.25;19.64;100838.77;108481;1263;62989;-54
2023/05/12 09:48:09;;;;;;;;;;;;;;;28.14;19.08;100838.73;108556;1263;61380;-55
2023/05/12 09:50:47;;;;;;;3.40;1.50;;;;;;;27.65;19.18;100834.64;108589;1263;74629;-55
2023/05/12 09:53:16;;;;;;;2.70;1.20;;;;;;;26.93;20.17;100839.16;108394;1266;69321;-55
2023/05/12 09:55:44;;;;;;;3.80;1.20;;;;;;;26.38;20.44;100840.66;108490;1263;73742;-57
2023/05/12 09:58:12;;;;;;;3.50;1.50;;;;;;;26.12;20.77;100837.82;108501;1262;61373;-57
2023/05/12 10:00:39;;;;;;;2.60;1.20;;;;;;;26.11;20.72;100838.84;108481;1264;61586;-56
2023/05/12 10:03:26;;;;;;;1.90;1.20;;;;;;;26.12;20.78;100835.80;108416;1262;75069;-56
2023/05/12 10:05:56;;;;;;;4.40;1.70;;;;;;;25.93;20.76;100839.11;108490;1263;69398;-56
2023/05/12 10:08:35;;;;;;;6.20;2.70;;;;;;;25.65;21.10;100832.14;108465;1264;74626;-55
2023/05/12 10:11:04;;;;;;;4.20;1.90;;;;;;;25.37;21.31;100832.65;108486;1263;60486;-60
2023/05/12 10:13:32;;;;;;;5.30;1.70;;;;;;;25.22;21.54;100832.06;108569;1267;61120;-56
2023/05/12 10:15:59;;;;;;;4.80;1.80;;;;;;;25.27;21.76;100831.46;108593;1264;74607;-54
2023/05/12 10:18:26;;;;;;;7.00;2.30;;;;;;;25.54;22.02;100828.63;108489;1262;67995;-55
2023/05/12 10:20:53;;;;;;;3.50;1.80;;;;;;;26.09;21.07;100828.21;108503;1263;74838;-60
2023/05/12 10:23:20;;;;;;;2.90;1.30;;;;;;;26.55;21.10;100826.91;108583;1262;61432;-56
2023/05/12 10:25:47;;;;;;;4.20;1.20;;;;;;;27.08;20.81;100820.64;108509;1263;62389;-55
2023/05/12 10:28:15;;;;;;;5.30;1.40;;;;;;;27.56;20.03;100821.27;108381;1263;75837;-56
2023/05/12 10:30:42;;;;;;;2.90;1.30;;;;;;;27.76;19.89;100822.86;108543;1262;69405;-61
2023/05/12 10:33:10;;;;;;;3.10;1.30;;;;;;;27.48;19.75;100826.48;108445;1267;73647;-57
2023/05/12 10:35:38;;;;;;;4.30;1.40;;;;;;;26.95;20.29;100829.89;108487;1264;61745;-56
2023/05/12 10:38:10;;;;;;;4.10;1.40;;;;;;;26.43;20.59;100832.69;108475;1263;61206;-57
2023/05/12 10:40:57;;;;;;;2.90;1.30;;;;;;;26.24;21.42;100831.74;108423;1263;76162;-59
2023/05/12 10:43:28;;;;;;;2.20;1.20;;;;;;;26.31;21.16;100826.69;108477;1266;68443;-57
2023/05/12 10:46:28;;;;;;;2.00;1.30;;;;;;;26.69;20.93;100821.81;108506;1263;73853;-57
2023/05/12 10:49:02;;;;;;;3.60;1.10;;;;;;;27.48;20.46;100816.04;108370;1264;62412;-56
2023/05/12 10:51:31;;;;;;;2.80;1.30;;;;;;;28.13;19.70;100810.39;108479;1264;62444;-58
2023/05/12 10:54:03;;;;;;;2.90;1.20;;;;;;;28.66;19.58;100807.84;108424;1263;74450;-63
2023/05/12 10:56:39;;;;;;;2.20;1.20;;;;;;;29.14;19.06;100800.36;108529;1263;68554;-56
2023/05/12 10:59:17;;;;;;;6.20;1.30;;;;;;;29.57;18.82;100795.58;108483;1264;74661;-57
2023/05/12 11:02:02;;;;;;;2.40;1.30;;;;;;;30.01;18.69;100799.05;108454;1263;61455;-58
2023/05/12 11:04:41;;;;;;;2.00;1.40;;;;;;;30.34;17.89;100796.17;108491;1264;61251;-57
2023/05/12 11:07:11;;;;;;;2.00;1.30;;;;;;;30.12;17.57;100797.98;108367;1264;75263;-59
2023/05/12 11:09:44;;;;;;;2.10;1.30;;;;;;;29.62;17.42;100800.72;108429;1264;69187;-57
2023/05/12 11:12:14;;;;;;;2.80;1.50;;;;;;;28.99;18.01;100801.60;108408;1264;74796;-54
2023/05/12 11:14:42;;;;;;;4.30;1.50;;;;;;;28.34;18.65;100810.02;108464;1264;62417;-55
2023/05/12 11:17:10;;;;;;;4.00;1.60;;;;;;;27.54;19.30;100809.44;108395;1264;58652;-59
2023/05/12 11:19:38;;;;;;;2.60;1.30;;;;;;;26.87;19.64;100812.34;108402;1263;76782;-55
2023/05/12 11:22:06;;;;;;;2.80;1.50;;;;;;;26.51;20.23;100814.17;108493;1263;68325;-56